Time;durP1;ratioP1;P1;durP2;ratioP2;P2;SDS_P1;SDS_P2;PMS_P1;PMS_P2;Temp;Humidity;BMP_temperature;BMP_pressure;BME280_temperature;BME280_humidity;BME280_pressure;Samples;Min_cycle;Max_cycle;Signal;HPM_P1;HPM_P2
2020/12/04 00:00:12;;;;;;;4.28;3.75;;;5.50;99.90;;;;;;5054783;28;20427;-75
2020/12/04 00:02:39;;;;;;;4.97;3.55;;;5.50;99.90;;;;;;5044574;28;20049;-76
2020/12/04 00:05:05;;;;;;;8.07;3.60;;;5.50;99.90;;;;;;5053715;28;20036;-75
2020/12/04 00:07:31;;;;;;;5.22;3.88;;;5.50;99.90;;;;;;5054303;28;20032;-76
2020/12/04 00:09:57;;;;;;;4.13;3.33;;;5.50;99.90;;;;;;5054619;28;20385;-77
2020/12/04 00:12:23;;;;;;;5.13;3.50;;;5.50;99.90;;;;;;5054590;28;20106;-77
2020/12/04 00:14:49;;;;;;;5.28;3.80;;;5.40;99.90;;;;;;5054623;28;20029;-77
2020/12/04 00:17:16;;;;;;;5.13;3.95;;;5.40;99.90;;;;;;5054050;28;20491;-76
2020/12/04 00:19:42;;;;;;;5.75;4.22;;;5.40;99.90;;;;;;5054593;28;20025;-76
2020/12/04 00:22:08;;;;;;;5.43;4.45;;;5.50;99.90;;;;;;5055285;28;20116;-77
2020/12/04 00:24:34;;;;;;;9.05;4.70;;;5.50;99.90;;;;;;5055720;28;20171;-77
2020/12/04 00:27:00;;;;;;;6.53;4.50;;;5.40;99.90;;;;;;5050838;28;20037;-77
2020/12/04 00:29:27;;;;;;;6.43;4.43;;;5.40;99.90;;;;;;5046637;28;20039;-77
2020/12/04 00:31:54;;;;;;;6.25;4.78;;;5.40;99.90;;;;;;5055883;28;20033;-76
2020/12/04 00:34:20;;;;;;;6.35;4.75;;;5.40;99.90;;;;;;5054649;28;20033;-77
2020/12/04 00:36:50;;;;;;;5.45;4.40;;;5.40;99.90;;;;;;5054992;28;20041;-77
2020/12/04 00:39:16;;;;;;;12.52;5.60;;;5.40;99.90;;;;;;5056167;28;20477;-77
2020/12/04 00:41:43;;;;;;;8.30;4.75;;;5.40;99.90;;;;;;5056387;28;20043;-77
2020/12/04 00:44:09;;;;;;;7.18;4.95;;;5.40;99.90;;;;;;5055864;28;20041;-77
2020/12/04 00:46:34;;;;;;;8.02;4.90;;;5.40;99.90;;;;;;5056084;28;20028;-77
2020/12/04 00:49:00;;;;;;;10.32;5.82;;;5.40;99.90;;;;;;5055054;28;20040;-76
2020/12/04 00:51:26;;;;;;;12.45;5.82;;;5.50;99.90;;;;;;5055266;28;20040;-76
2020/12/04 00:53:54;;;;;;;10.50;6.15;;;5.40;99.90;;;;;;5056357;28;20020;-77
2020/12/04 00:56:28;;;;;;;6.70;4.28;;;5.50;99.90;;;;;;5049733;28;20072;-77
2020/12/04 00:58:54;;;;;;;7.35;5.18;;;5.50;99.90;;;;;;5069160;28;20059;-77
2020/12/04 01:01:20;;;;;;;9.45;5.75;;;5.50;99.90;;;;;;5072943;28;20056;-77
2020/12/04 01:03:46;;;;;;;7.78;4.78;;;5.50;99.90;;;;;;5077553;28;20029;-77
2020/12/04 01:06:12;;;;;;;11.35;5.22;;;5.50;99.90;;;;;;5071007;28;20478;-77
2020/12/04 01:08:38;;;;;;;10.10;5.47;;;5.50;99.90;;;;;;5057076;28;20047;-77
2020/12/04 01:11:04;;;;;;;8.00;5.10;;;5.40;99.90;;;;;;5057562;28;20021;-77
2020/12/04 01:13:30;;;;;;;9.40;5.38;;;5.40;99.90;;;;;;5055353;28;20115;-77
2020/12/04 01:15:56;;;;;;;9.70;5.13;;;5.40;99.90;;;;;;5054374;28;20473;-77
2020/12/04 01:18:21;;;;;;;5.53;4.57;;;5.40;99.90;;;;;;5055313;28;20104;-77
2020/12/04 01:20:47;;;;;;;9.05;5.20;;;5.40;99.90;;;;;;5052815;28;20051;-77
2020/12/04 01:23:13;;;;;;;8.35;4.80;;;5.30;99.90;;;;;;5056164;28;20458;-77
2020/12/04 01:25:38;;;;;;;6.70;4.70;;;5.40;99.90;;;;;;5055196;28;20077;-77
2020/12/04 01:28:04;;;;;;;6.80;4.50;;;5.40;99.90;;;;;;5054903;28;20096;-77
2020/12/04 01:30:30;;;;;;;6.50;4.38;;;5.40;99.90;;;;;;5057113;28;20025;-77
2020/12/04 01:32:56;;;;;;;10.88;5.10;;;5.40;99.90;;;;;;5057567;28;20029;-77
2020/12/04 01:35:21;;;;;;;8.30;4.78;;;5.30;99.90;;;;;;5056534;28;20018;-78
2020/12/04 01:37:47;;;;;;;6.38;4.35;;;5.30;99.90;;;;;;5054985;28;20144;-77
2020/12/04 01:40:15;;;;;;;9.98;4.80;;;5.30;99.90;;;;;;5053606;28;20099;-77
2020/12/04 01:42:40;;;;;;;6.88;4.50;;;5.30;99.90;;;;;;5055665;28;20104;-77
2020/12/04 01:45:06;;;;;;;9.25;5.47;;;5.30;99.90;;;;;;5056608;28;20056;-76
2020/12/04 01:47:32;;;;;;;8.10;4.72;;;5.30;99.90;;;;;;5055260;28;20017;-77
2020/12/04 01:49:58;;;;;;;8.38;4.72;;;5.20;99.90;;;;;;5048016;28;20452;-77
2020/12/04 01:52:26;;;;;;;8.82;5.00;;;5.20;99.90;;;;;;5053263;28;20366;-76
2020/12/04 01:54:53;;;;;;;7.80;4.93;;;5.20;99.90;;;;;;5049438;28;20036;-77
2020/12/04 01:57:21;;;;;;;9.52;5.47;;;5.20;99.90;;;;;;5047338;28;20032;-77
2020/12/04 01:59:46;;;;;;;;;;;5.20;99.90;;;;;;5053313;28;20483;-76
2020/12/04 02:02:18;;;;;;;8.98;5.00;;;5.20;99.90;;;;;;5047747;28;20024;-77
2020/12/04 02:04:44;;;;;;;7.50;4.38;;;5.10;99.90;;;;;;5056529;28;20078;-77
2020/12/04 02:07:34;;;;;;;8.95;5.25;;;5.20;99.90;;;;;;5053382;28;20393;-76
2020/12/04 02:10:06;;;;;;;10.75;5.25;;;5.10;99.90;;;;;;5050459;28;20087;-77
2020/12/04 02:12:34;;;;;;;12.32;5.97;;;5.10;99.90;;;;;;5053256;28;20044;-77
2020/12/04 02:15:01;;;;;;;7.93;4.53;;;5.10;99.90;;;;;;5049285;28;20032;-76
2020/12/04 02:17:34;;;;;;;6.70;4.40;;;5.10;99.90;;;;;;5052806;28;20115;-76
2020/12/04 02:20:00;;;;;;;9.95;4.85;;;5.10;99.90;;;;;;5052135;28;20033;-76
2020/12/04 02:22:33;;;;;;;8.60;5.45;;;5.10;99.90;;;;;;5054059;28;20146;-76
2020/12/04 02:24:59;;;;;;;9.48;5.18;;;5.10;99.90;;;;;;5053234;28;20032;-76
2020/12/04 02:27:24;;;;;;;7.88;4.95;;;5.10;99.90;;;;;;5073302;28;20033;-76
2020/12/04 02:29:50;;;;;;;7.32;4.57;;;5.10;99.90;;;;;;5072563;28;20017;-75
2020/12/04 02:32:16;;;;;;;8.13;5.45;;;5.10;99.90;;;;;;5074242;28;20032;-75
2020/12/04 02:34:42;;;;;;;8.98;5.47;;;5.10;99.90;;;;;;5071278;28;20036;-74
2020/12/04 02:37:09;;;;;;;10.95;5.45;;;5.10;99.90;;;;;;5062679;28;20029;-75
2020/12/04 02:39:35;;;;;;;8.15;5.05;;;5.10;99.90;;;;;;5061563;28;20489;-75
2020/12/04 02:42:01;;;;;;;8.00;4.78;;;5.10;99.90;;;;;;5056596;28;20025;-75
2020/12/04 02:44:27;;;;;;;10.65;5.15;;;5.10;99.90;;;;;;5053731;28;20029;-75
2020/12/04 02:46:53;;;;;;;9.93;5.45;;;5.10;99.90;;;;;;5051400;28;20500;-75
2020/12/04 02:49:22;;;;;;;6.88;4.95;;;5.10;99.90;;;;;;5051272;28;20068;-75
2020/12/04 02:51:49;;;;;;;9.25;5.57;;;5.10;99.90;;;;;;5047601;28;20023;-76
2020/12/04 02:54:15;;;;;;;11.75;4.93;;;5.10;99.90;;;;;;5044634;28;20107;-76
2020/12/04 02:56:41;;;;;;;6.88;4.57;;;5.10;99.90;;;;;;5053684;28;20029;-75
2020/12/04 02:59:07;;;;;;;7.57;4.53;;;5.20;99.90;;;;;;5056225;28;20037;-75
2020/12/04 03:01:33;;;;;;;7.15;4.40;;;5.20;99.90;;;;;;5055396;28;20087;-76
2020/12/04 03:03:58;;;;;;;8.02;4.70;;;5.20;99.90;;;;;;5054853;28;20039;-75
2020/12/04 03:06:24;;;;;;;6.85;4.18;;;5.20;99.90;;;;;;5055847;28;20079;-75
2020/12/04 03:08:50;;;;;;;7.18;4.20;;;5.20;99.90;;;;;;5055382;28;20052;-75
2020/12/04 03:11:20;;;;;;;6.65;3.83;;;5.20;99.90;;;;;;5051654;28;20033;-75
2020/12/04 03:13:46;;;;;;;7.43;4.80;;;5.20;99.90;;;;;;5056659;28;20412;-76
2020/12/04 03:16:12;;;;;;;7.38;4.35;;;5.20;99.90;;;;;;5062908;28;20136;-76
2020/12/04 03:18:38;;;;;;;8.23;4.40;;;5.30;99.90;;;;;;5054947;28;20090;-76
2020/12/04 03:21:03;;;;;;;3.92;3.13;;;5.30;99.90;;;;;;5055844;28;20040;-76
2020/12/04 03:23:29;;;;;;;5.45;3.58;;;5.30;99.90;;;;;;5056556;28;20490;-76
2020/12/04 03:25:55;;;;;;;5.13;3.70;;;5.40;99.90;;;;;;5051114;28;20171;-76
2020/12/04 03:28:21;;;;;;;6.03;4.30;;;5.40;99.90;;;;;;5049866;28;20020;-76
2020/12/04 03:30:47;;;;;;;7.53;3.63;;;5.30;99.90;;;;;;5056268;28;20099;-76
2020/12/04 03:33:12;;;;;;;4.88;3.38;;;5.40;99.90;;;;;;5054655;28;20111;-76
2020/12/04 03:35:38;;;;;;;5.13;3.50;;;5.40;99.90;;;;;;5056077;28;20028;-76
2020/12/04 03:38:04;;;;;;;6.90;3.75;;;5.40;99.90;;;;;;5056472;28;20029;-76
2020/12/04 03:40:29;;;;;;;5.63;3.75;;;5.40;99.90;;;;;;5053868;28;20049;-76
2020/12/04 03:42:55;;;;;;;5.20;3.15;;;5.40;99.90;;;;;;5053512;28;20029;-76
2020/12/04 03:45:21;;;;;;;4.90;3.70;;;5.40;99.90;;;;;;5057147;28;20370;-76
2020/12/04 03:47:46;;;;;;;4.20;3.03;;;5.40;99.90;;;;;;5054881;28;20033;-76
2020/12/04 03:50:12;;;;;;;5.80;3.35;;;5.40;99.90;;;;;;5048002;28;20017;-76
2020/12/04 03:52:37;;;;;;;4.50;2.88;;;5.40;99.90;;;;;;5075083;28;20037;-76
2020/12/04 03:55:03;;;;;;;6.25;3.90;;;5.40;99.90;;;;;;5076942;28;20028;-76
2020/12/04 03:57:29;;;;;;;5.53;3.40;;;5.40;99.90;;;;;;5079510;28;20037;-76
2020/12/04 03:59:54;;;;;;;4.82;3.03;;;5.40;99.90;;;;;;5079470;28;20045;-76
2020/12/04 04:02:20;;;;;;;5.95;3.38;;;5.50;99.90;;;;;;5079207;28;20111;-76
2020/12/04 04:04:45;;;;;;;4.32;2.72;;;5.50;99.90;;;;;;5071601;28;20452;-77
2020/12/04 04:07:11;;;;;;;2.78;2.53;;;5.50;99.90;;;;;;5056055;28;20029;-77
2020/12/04 04:09:37;;;;;;;4.40;3.20;;;5.50;99.90;;;;;;5057082;28;20499;-77
2020/12/04 04:12:02;;;;;;;8.63;2.47;;;5.50;99.90;;;;;;5056302;28;20035;-77
2020/12/04 04:14:28;;;;;;;2.58;1.95;;;5.60;99.90;;;;;;5051410;28;20110;-77
2020/12/04 04:16:54;;;;;;;3.78;2.47;;;5.60;99.90;;;;;;5055192;28;20048;-77
2020/12/04 04:19:19;;;;;;;4.40;2.33;;;5.60;99.90;;;;;;5054777;28;20024;-78
2020/12/04 04:21:45;;;;;;;3.13;2.28;;;5.60;99.90;;;;;;5055690;28;20029;-77
2020/12/04 04:24:10;;;;;;;2.90;2.60;;;5.60;99.90;;;;;;5054033;28;20076;-77
2020/12/04 04:26:36;;;;;;;3.70;2.28;;;5.60;99.90;;;;;;5056039;28;20032;-76
2020/12/04 04:29:02;;;;;;;1.90;1.70;;;5.70;99.90;;;;;;5046934;28;20081;-77
2020/12/04 04:31:27;;;;;;;2.03;1.85;;;5.70;99.90;;;;;;5054636;28;20036;-78
2020/12/04 04:33:53;;;;;;;2.70;1.85;;;5.70;99.90;;;;;;5054900;28;20025;-77
2020/12/04 04:36:19;;;;;;;3.22;2.50;;;5.80;99.90;;;;;;5056196;28;20029;-77
2020/12/04 04:38:44;;;;;;;3.33;2.33;;;5.80;99.90;;;;;;5055332;28;20104;-77
2020/12/04 04:41:10;;;;;;;3.20;1.95;;;5.90;99.90;;;;;;5054442;28;20496;-77
2020/12/04 04:43:35;;;;;;;2.03;1.83;;;5.90;99.90;;;;;;5049716;28;20437;-77
2020/12/04 04:46:19;;;;;;;2.13;1.65;;;5.80;99.90;;;;;;5055408;28;20052;-77
2020/12/04 04:48:52;;;;;;;3.03;2.00;;;5.90;99.90;;;;;;5036526;28;20037;-77
2020/12/04 04:51:20;;;;;;;1.73;1.60;;;5.90;99.90;;;;;;5043972;28;20025;-77
2020/12/04 04:53:51;;;;;;;2.13;1.88;;;5.90;99.90;;;;;;5053030;28;20132;-77
2020/12/04 04:56:17;;;;;;;2.47;1.52;;;6.00;99.90;;;;;;5055200;28;20083;-77
2020/12/04 04:58:42;;;;;;;2.28;1.45;;;6.00;99.90;;;;;;5053745;28;20412;-77
2020/12/04 05:01:08;;;;;;;1.20;1.10;;;5.90;99.90;;;;;;5053240;28;20059;-77
2020/12/04 05:03:33;;;;;;;1.60;1.10;;;5.90;99.90;;;;;;5054513;28;20017;-77
2020/12/04 05:05:59;;;;;;;1.65;1.40;;;5.90;99.90;;;;;;5054280;28;20033;-77
2020/12/04 05:08:24;;;;;;;2.65;1.45;;;5.90;99.90;;;;;;5053904;28;20037;-77
2020/12/04 05:10:50;;;;;;;1.65;1.55;;;5.90;99.90;;;;;;5055118;28;20031;-77
2020/12/04 05:13:20;;;;;;;1.40;1.30;;;5.90;99.90;;;;;;5054746;28;20032;-77
2020/12/04 05:15:46;;;;;;;1.27;1.17;;;6.00;99.90;;;;;;5056006;28;20115;-77
2020/12/04 05:18:13;;;;;;;1.65;1.55;;;6.00;99.90;;;;;;5056930;28;20037;-78
2020/12/04 05:20:43;;;;;;;2.00;1.10;;;5.90;99.90;;;;;;5064260;28;20021;-78
2020/12/04 05:23:09;;;;;;;1.40;1.20;;;5.90;99.90;;;;;;5069319;28;20026;-77
2020/12/04 05:25:40;;;;;;;2.35;1.13;;;5.90;99.90;;;;;;5076599;28;20037;-77
2020/12/04 05:28:17;;;;;;;1.67;1.30;;;5.90;99.90;;;;;;5077586;28;20061;-78
2020/12/04 05:30:52;;;;;;;1.45;1.20;;;5.90;99.90;;;;;;5078672;28;20031;-78
2020/12/04 05:33:18;;;;;;;2.53;1.40;;;5.90;99.90;;;;;;5076104;28;20064;-78
2020/12/04 05:35:51;;;;;;;1.40;1.10;;;5.90;99.90;;;;;;5061145;28;20032;-78
2020/12/04 05:38:18;;;;;;;1.23;1.10;;;5.90;99.90;;;;;;5055830;28;20033;-77
2020/12/04 05:40:49;;;;;;;2.47;1.10;;;5.90;99.90;;;;;;5043978;28;20030;-78
2020/12/04 05:43:27;;;;;;;1.60;1.40;;;6.00;99.90;;;;;;5050244;28;20025;-78
2020/12/04 05:46:20;;;;;;;1.80;1.33;;;6.10;99.90;;;;;;5052378;28;20116;-75
2020/12/04 05:48:56;;;;;;;1.48;1.30;;;6.10;99.90;;;;;;5043924;28;20029;-77
2020/12/04 05:51:30;;;;;;;1.17;1.08;;;6.20;99.90;;;;;;5053244;28;20025;-76
2020/12/04 05:53:56;;;;;;;1.95;1.65;;;6.30;99.90;;;;;;5050157;28;20025;-76
2020/12/04 05:56:22;;;;;;;2.28;1.30;;;6.30;99.90;;;;;;5051965;28;20021;-77
2020/12/04 05:58:49;;;;;;;1.42;1.33;;;6.30;99.90;;;;;;5053979;28;20069;-77
2020/12/04 06:01:20;;;;;;;1.55;1.33;;;6.30;99.90;;;;;;5052227;28;20100;-77
2020/12/04 06:03:54;;;;;;;1.70;1.17;;;6.30;99.90;;;;;;5051030;28;20045;-77
2020/12/04 06:06:33;;;;;;;4.35;1.25;;;6.30;99.90;;;;;;5050039;28;20036;-77
2020/12/04 06:09:03;;;;;;;3.38;1.15;;;6.30;99.90;;;;;;5051427;28;20035;-77
2020/12/04 06:11:34;;;;;;;1.00;0.98;;;6.30;99.90;;;;;;5050726;28;20116;-76
2020/12/04 06:14:01;;;;;;;3.03;1.30;;;6.40;99.90;;;;;;5049630;28;20032;-76
2020/12/04 06:16:28;;;;;;;1.20;1.10;;;6.40;99.90;;;;;;5049336;28;20033;-77
2020/12/04 06:18:53;;;;;;;1.58;1.45;;;6.40;99.90;;;;;;5052059;28;20385;-77
2020/12/04 06:21:44;;;;;;;1.27;1.15;;;6.40;99.90;;;;;;5050591;28;20025;-77
2020/12/04 06:24:10;;;;;;;1.88;1.10;;;6.40;99.90;;;;;;5045612;28;20440;-77
2020/12/04 06:26:45;;;;;;;1.42;1.05;;;6.50;99.90;;;;;;5049538;28;20087;-78
2020/12/04 06:29:10;;;;;;;1.55;1.45;;;6.60;99.90;;;;;;5051562;28;20029;-78
2020/12/04 06:31:36;;;;;;;1.40;1.30;;;6.60;99.90;;;;;;5045666;28;20429;-77
2020/12/04 06:34:16;;;;;;;0.90;0.90;;;6.50;99.90;;;;;;5048147;28;20104;-77
2020/12/04 06:36:42;;;;;;;4.43;1.23;;;6.50;99.90;;;;;;5050006;28;20499;-78
2020/12/04 06:39:08;;;;;;;1.27;1.17;;;6.50;99.90;;;;;;5049050;28;20027;-77
2020/12/04 06:41:44;;;;;;;1.42;1.27;;;6.50;99.90;;;;;;5049240;28;20393;-77
2020/12/04 06:44:21;;;;;;;0.98;0.95;;;6.50;99.90;;;;;;5040798;28;20428;-77
2020/12/04 06:46:49;;;;;;;3.38;1.35;;;6.40;99.90;;;;;;5050003;28;20536;-78
2020/12/04 06:49:41;;;;;;;1.63;0.95;;;6.40;99.90;;;;;;5051184;28;20036;-77
2020/12/04 06:52:20;;;;;;;2.58;1.20;;;6.40;99.90;;;;;;5051887;28;20045;-77
2020/12/04 06:54:48;;;;;;;1.63;1.23;;;6.40;99.90;;;;;;5060972;28;20033;-77
2020/12/04 06:57:18;;;;;;;1.92;1.33;;;6.30;99.90;;;;;;5071703;28;20386;-76
2020/12/04 06:59:44;;;;;;;1.90;1.25;;;6.40;99.90;;;;;;5073222;28;20021;-75
2020/12/04 07:02:14;;;;;;;1.70;1.30;;;6.40;99.90;;;;;;5062036;28;20035;-75
2020/12/04 07:04:45;;;;;;;1.20;1.00;;;6.40;99.90;;;;;;5042210;28;20520;-75
2020/12/04 07:07:14;;;;;;;1.23;1.13;;;6.30;99.90;;;;;;5052640;28;20024;-76
2020/12/04 07:09:40;;;;;;;;;;;6.20;99.90;;;;;;5054357;28;20055;-76
2020/12/04 07:12:08;;;;;;;5.15;1.05;;;6.20;99.90;;;;;;5047188;28;19917;-76
2020/12/04 07:14:33;;;;;;;1.15;0.80;;;6.20;99.90;;;;;;5050032;28;20113;-75
2020/12/04 07:16:59;;;;;;;1.40;1.13;;;6.20;99.90;;;;;;5049515;28;20471;-75
2020/12/04 07:19:26;;;;;;;1.52;1.30;;;6.20;99.90;;;;;;5051131;28;20099;-76
2020/12/04 07:21:52;;;;;;;1.10;1.00;;;6.20;99.90;;;;;;5051040;28;20033;-75
2020/12/04 07:24:18;;;;;;;1.15;1.02;;;6.30;99.90;;;;;;5044206;28;20025;-76
2020/12/04 07:26:56;;;;;;;9.38;1.27;;;6.30;99.90;;;;;;5043553;28;20495;-76
2020/12/04 07:29:22;;;;;;;4.78;0.70;;;6.40;99.90;;;;;;5051325;28;20062;-76
2020/12/04 07:31:52;;;;;;;2.83;1.08;;;6.40;99.90;;;;;;5049449;28;20041;-76
2020/12/04 07:34:20;;;;;;;3.95;1.23;;;6.40;99.90;;;;;;5050432;28;20053;-76
2020/12/04 07:36:54;;;;;;;0.50;0.50;;;6.40;99.90;;;;;;5049486;28;20532;-76
2020/12/04 07:39:28;;;;;;;4.95;0.73;;;6.40;99.90;;;;;;5049762;28;20028;-76
2020/12/04 07:41:56;;;;;;;1.23;0.93;;;6.50;99.90;;;;;;5051349;28;20067;-76
2020/12/04 07:44:34;;;;;;;4.75;0.75;;;6.50;99.90;;;;;;5052713;28;20063;-76
2020/12/04 07:47:11;;;;;;;3.03;0.73;;;6.60;99.90;;;;;;5054373;28;20385;-76
2020/12/04 07:49:41;;;;;;;1.02;0.60;;;6.60;99.90;;;;;;5054061;28;20112;-76
2020/12/04 07:52:15;;;;;;;3.22;0.60;;;6.70;99.90;;;;;;5054097;28;20116;-76
2020/12/04 07:54:41;;;;;;;3.05;0.77;;;6.80;99.90;;;;;;5053271;28;20493;-75
2020/12/04 07:57:07;;;;;;;0.40;0.40;;;6.80;99.90;;;;;;5052123;28;20397;-76
2020/12/04 07:59:35;;;;;;;2.15;0.60;;;6.90;99.90;;;;;;5053649;28;20017;-76
2020/12/04 08:02:03;;;;;;;0.40;0.40;;;7.00;99.90;;;;;;5053463;28;20059;-76
2020/12/04 08:04:29;;;;;;;1.05;0.65;;;7.10;99.90;;;;;;5053962;28;20029;-76
2020/12/04 08:07:28;;;;;;;0.30;0.30;;;7.20;99.90;;;;;;5052571;28;20695;-76
2020/12/04 08:09:54;;;;;;;1.17;0.40;;;7.20;99.90;;;;;;5055235;28;20122;-76
2020/12/04 08:12:31;;;;;;;4.75;0.43;;;7.20;99.90;;;;;;5053356;28;20032;-76
2020/12/04 08:14:59;;;;;;;3.22;0.47;;;7.30;99.90;;;;;;5053214;28;20093;-76
2020/12/04 08:17:26;;;;;;;0.90;0.20;;;7.30;99.90;;;;;;5052284;28;20037;-77
2020/12/04 08:19:53;;;;;;;0.15;0.15;;;7.30;99.90;;;;;;5052409;28;20033;-77
2020/12/04 08:22:34;;;;;;;0.93;0.20;;;7.30;99.90;;;;;;5052299;28;20087;-76
2020/12/04 08:25:04;;;;;;;0.43;0.20;;;7.30;99.90;;;;;;5040750;28;20022;-76
2020/12/04 08:27:43;;;;;;;0.88;0.20;;;7.50;99.90;;;;;;5034240;28;20648;-77
2020/12/04 08:30:15;;;;;;;1.38;0.30;;;7.60;99.90;;;;;;5051932;28;20025;-76
2020/12/04 08:32:43;;;;;;;0.20;0.20;;;7.60;99.90;;;;;;5057914;28;20025;-76
2020/12/04 08:35:31;;;;;;;2.45;0.40;;;7.70;99.90;;;;;;5073877;28;20028;-76
2020/12/04 08:38:07;;;;;;;0.35;0.35;;;7.70;99.90;;;;;;5076262;28;20048;-76
2020/12/04 08:40:35;;;;;;;0.73;0.50;;;7.70;99.90;;;;;;5076196;28;20080;-76
2020/12/04 08:43:14;;;;;;;5.78;0.60;;;7.60;99.90;;;;;;5075630;28;20033;-75
2020/12/04 08:45:42;;;;;;;2.50;0.32;;;7.70;99.90;;;;;;5075520;28;20144;-76
2020/12/04 08:48:08;;;;;;;0.20;0.20;;;7.70;99.90;;;;;;5074328;28;20041;-77
2020/12/04 08:50:46;;;;;;;3.70;0.40;;;7.60;99.90;;;;;;5060242;28;20033;-77
2020/12/04 08:53:13;;;;;;;;;;;7.60;99.90;;;;;;5055333;28;20032;-76
2020/12/04 08:55:45;;;;;;;1.27;0.47;;;7.60;99.90;;;;;;5055662;28;19954;-76
2020/12/04 08:58:14;;;;;;;0.80;0.20;;;7.60;99.90;;;;;;5055589;28;20033;-76
2020/12/04 09:00:40;;;;;;;1.65;0.77;;;7.60;99.90;;;;;;5051925;28;20443;-76
2020/12/04 09:03:06;;;;;;;1.63;0.40;;;7.50;99.90;;;;;;5053642;28;20021;-76
2020/12/04 09:05:32;;;;;;;1.00;0.10;;;7.50;99.90;;;;;;5053164;28;20025;-76
2020/12/04 09:07:57;;;;;;;1.13;0.30;;;7.40;99.90;;;;;;5051846;28;20033;-77
2020/12/04 09:10:23;;;;;;;1.65;0.50;;;7.40;99.90;;;;;;5051156;28;20488;-77
2020/12/04 09:12:49;;;;;;;1.02;0.93;;;7.50;99.90;;;;;;5051328;28;20048;-77
2020/12/04 09:15:17;;;;;;;0.75;0.50;;;7.50;99.90;;;;;;5051204;28;20385;-77
2020/12/04 09:17:43;;;;;;;;;;;7.60;99.90;;;;;;5035268;28;20049;-77
2020/12/04 09:20:10;;;;;;;3.30;0.50;;;7.60;99.90;;;;;;5052813;28;19919;-77
2020/12/04 09:22:37;;;;;;;0.45;0.43;;;7.60;99.90;;;;;;5049527;28;20029;-76
2020/12/04 09:25:05;;;;;;;0.40;0.32;;;7.70;99.90;;;;;;5048915;28;20025;-77
2020/12/04 09:27:30;;;;;;;1.98;1.08;;;7.70;99.90;;;;;;5050299;28;20037;-76
2020/12/04 09:29:56;;;;;;;5.25;0.40;;;7.80;99.90;;;;;;5052524;28;20139;-75
2020/12/04 09:32:22;;;;;;;2.60;0.45;;;7.80;99.90;;;;;;5054705;28;20055;-79
2020/12/04 09:34:49;;;;;;;0.45;0.40;;;7.80;99.90;;;;;;5053076;28;20037;-78
2020/12/04 09:37:18;;;;;;;1.73;0.50;;;7.80;99.90;;;;;;5052172;28;20037;-76
2020/12/04 09:39:45;;;;;;;1.85;0.20;;;7.80;99.90;;;;;;5052612;28;20021;-76
2020/12/04 09:42:13;;;;;;;0.50;0.43;;;7.80;99.90;;;;;;5052070;28;20025;-77
2020/12/04 09:44:40;;;;;;;0.45;0.43;;;7.80;99.90;;;;;;5051783;28;20552;-78
2020/12/04 09:47:06;;;;;;;1.02;0.43;;;7.90;99.90;;;;;;5052198;28;20485;-78
2020/12/04 09:49:32;;;;;;;0.85;0.38;;;7.90;99.90;;;;;;5051351;28;20052;-79
2020/12/04 09:51:58;;;;;;;2.25;0.30;;;8.00;99.90;;;;;;5046383;28;20095;-78
2020/12/04 09:54:28;;;;;;;1.20;0.50;;;7.90;99.90;;;;;;5052439;28;20029;-78
2020/12/04 09:56:56;;;;;;;1.02;0.50;;;7.90;99.90;;;;;;5050771;28;20040;-79
2020/12/04 09:59:23;;;;;;;1.70;0.38;;;8.00;99.90;;;;;;5049516;28;20038;-77
2020/12/04 10:01:50;;;;;;;0.35;0.32;;;8.00;99.90;;;;;;5049284;28;20025;-78
2020/12/04 10:04:18;;;;;;;1.33;0.28;;;7.90;99.90;;;;;;5046216;28;20469;-78
2020/12/04 10:06:47;;;;;;;0.70;0.28;;;7.90;99.90;;;;;;5050876;28;20120;-79
2020/12/04 10:09:14;;;;;;;2.53;0.30;;;7.90;99.90;;;;;;5053389;28;20037;-76
2020/12/04 10:11:40;;;;;;;4.13;0.60;;;7.80;99.90;;;;;;5054899;28;20476;-82
2020/12/04 10:14:05;;;;;;;0.88;0.45;;;7.80;99.90;;;;;;5056131;28;20036;-78
2020/12/04 10:16:31;;;;;;;1.00;0.32;;;7.90;99.90;;;;;;5053839;28;20123;-78
2020/12/04 10:18:58;;;;;;;0.38;0.30;;;7.80;99.90;;;;;;5055594;28;20147;-78
2020/12/04 10:21:27;;;;;;;1.95;0.40;;;7.90;99.90;;;;;;5071863;28;20285;-77
2020/12/04 10:23:54;;;;;;;0.55;0.45;;;7.90;99.90;;;;;;5073516;28;20032;-78
2020/12/04 10:26:21;;;;;;;0.50;0.50;;;8.00;99.90;;;;;;5075396;28;20037;-78
2020/12/04 10:28:46;;;;;;;0.38;0.30;;;8.00;99.90;;;;;;5075614;28;20036;-79
2020/12/04 10:31:12;;;;;;;2.25;0.50;;;8.10;99.90;;;;;;5075441;28;20021;-80
2020/12/04 10:33:38;;;;;;;0.63;0.35;;;8.10;99.90;;;;;;5082627;28;20039;-80
2020/12/04 10:36:04;;;;;;;6.68;0.45;;;8.10;99.90;;;;;;5076239;28;20049;-80
2020/12/04 10:38:30;;;;;;;2.45;0.50;;;8.10;99.90;;;;;;5048676;28;20029;-79
2020/12/04 10:40:58;;;;;;;0.17;0.17;;;8.10;99.90;;;;;;5051110;28;20029;-83
2020/12/04 10:43:25;;;;;;;0.82;0.35;;;8.20;99.90;;;;;;5052684;28;20029;-78
2020/12/04 10:45:51;;;;;;;0.32;0.30;;;8.20;99.90;;;;;;5054147;28;20047;-79
2020/12/04 10:48:16;;;;;;;3.15;0.40;;;8.20;99.90;;;;;;5051308;28;20390;-80
2020/12/04 10:50:45;;;;;;;0.43;0.40;;;8.20;99.90;;;;;;5050355;28;20029;-80
2020/12/04 10:53:11;;;;;;;3.50;0.60;;;8.20;99.90;;;;;;5056909;28;20057;-78
2020/12/04 10:55:37;;;;;;;0.73;0.57;;;8.20;99.90;;;;;;5052057;28;20083;-78
2020/12/04 10:58:03;;;;;;;1.45;0.75;;;8.20;99.90;;;;;;5051113;28;20331;-77
2020/12/04 11:00:28;;;;;;;0.50;0.50;;;8.30;99.90;;;;;;5049582;28;20048;-77
2020/12/04 11:03:02;;;;;;;1.17;0.30;;;8.20;99.90;;;;;;5051011;28;20035;-79
2020/12/04 11:07:53;;;;;;;0.30;0.30;;;8.50;99.90;;;;;;5060289;28;20112;-78
2020/12/04 11:10:20;;;;;;;2.70;0.73;;;8.60;99.90;;;;;;5049956;28;20083;-79
2020/12/04 11:12:45;;;;;;;0.60;0.50;;;8.70;99.90;;;;;;5049249;28;20124;-79
2020/12/04 11:15:11;;;;;;;3.97;0.30;;;8.80;99.90;;;;;;5051399;28;20547;-79
2020/12/04 11:17:38;;;;;;;0.40;0.40;;;8.80;99.90;;;;;;5052463;28;20079;-78
2020/12/04 11:20:04;;;;;;;0.50;0.40;;;8.70;99.90;;;;;;5054616;28;20041;-76
2020/12/04 11:22:33;;;;;;;3.28;0.40;;;8.60;99.90;;;;;;5053682;28;20037;-80
2020/12/04 11:25:02;;;;;;;0.82;0.30;;;8.50;99.90;;;;;;5053416;28;20018;-77
2020/12/04 11:27:28;;;;;;;0.20;0.20;;;8.40;99.90;;;;;;5058399;28;20036;-79
2020/12/04 11:29:54;;;;;;;2.28;1.00;;;8.30;99.90;;;;;;5059556;28;20037;-78
2020/12/04 11:32:19;;;;;;;0.32;0.32;;;8.30;99.90;;;;;;5059692;28;20039;-79
2020/12/04 11:34:45;;;;;;;1.15;0.60;;;8.30;99.90;;;;;;5060614;28;20483;-76
2020/12/04 11:37:12;;;;;;;1.65;0.40;;;8.30;99.90;;;;;;5053457;28;20037;-77
2020/12/04 11:39:40;;;;;;;0.45;0.40;;;8.40;99.90;;;;;;5056625;28;20029;-78
2020/12/04 11:42:09;;;;;;;0.30;0.30;;;8.40;99.90;;;;;;5056466;28;20538;-77
2020/12/04 11:44:35;;;;;;;0.40;0.40;;;8.40;99.90;;;;;;5056684;28;20052;-76
2020/12/04 11:47:01;;;;;;;1.05;0.25;;;8.40;99.90;;;;;;5057168;28;20025;-76
2020/12/04 11:49:27;;;;;;;0.93;0.47;;;8.60;99.90;;;;;;5059203;28;20098;-77
2020/12/04 11:51:52;;;;;;;0.45;0.40;;;8.70;99.90;;;;;;5048054;28;20072;-77
2020/12/04 11:54:18;;;;;;;0.55;0.55;;;8.70;99.90;;;;;;5057175;28;20028;-78
2020/12/04 11:56:50;;;;;;;0.30;0.30;;;8.80;99.90;;;;;;5053697;28;20493;-78
2020/12/04 11:59:19;;;;;;;0.55;0.30;;;8.90;99.90;;;;;;5036083;28;20037;-78
2020/12/04 12:01:46;;;;;;;0.30;0.30;;;8.90;99.90;;;;;;5067142;28;20021;-79
2020/12/04 12:04:14;;;;;;;0.88;0.50;;;8.80;99.90;;;;;;5049059;28;20115;-77
2020/12/04 12:06:43;;;;;;;;;;;8.70;99.90;;;;;;5050896;28;20036;-77
2020/12/04 12:09:08;;;;;;;0.50;0.40;;;8.60;99.90;;;;;;5052116;28;19912;-78
2020/12/04 12:11:35;;;;;;;0.63;0.38;;;8.50;99.90;;;;;;5061395;28;20473;-78
2020/12/04 12:14:00;;;;;;;0.90;0.40;;;8.50;99.90;;;;;;5072367;28;20016;-78
2020/12/04 12:16:26;;;;;;;1.38;0.38;;;8.60;99.90;;;;;;5073762;28;20029;-79
2020/12/04 12:18:52;;;;;;;0.45;0.45;;;8.60;99.90;;;;;;5074278;28;20028;-78
2020/12/04 12:21:18;;;;;;;0.30;0.30;;;8.60;99.90;;;;;;5074709;28;20049;-78
2020/12/04 12:23:44;;;;;;;2.20;0.43;;;8.50;99.90;;;;;;5072167;28;20060;-79
2020/12/04 12:26:11;;;;;;;1.88;0.68;;;8.40;99.90;;;;;;5066285;28;20025;-77
2020/12/04 12:28:37;;;;;;;0.57;0.50;;;8.50;99.90;;;;;;5055342;28;20033;-72
2020/12/04 12:31:03;;;;;;;0.50;0.40;;;8.50;99.90;;;;;;5056983;28;20040;-78
2020/12/04 12:33:29;;;;;;;0.73;0.50;;;8.40;99.90;;;;;;5058348;28;20024;-77
2020/12/04 12:35:54;;;;;;;0.30;0.30;;;8.40;99.90;;;;;;5055261;28;20033;-77
2020/12/04 12:38:21;;;;;;;0.32;0.32;;;8.30;99.90;;;;;;5055310;28;20028;-78
2020/12/04 12:40:47;;;;;;;0.30;0.30;;;8.30;99.90;;;;;;5054777;28;20082;-78
2020/12/04 12:43:13;;;;;;;3.13;0.40;;;8.20;99.90;;;;;;5053439;28;20041;-79
2020/12/04 12:45:39;;;;;;;1.27;0.50;;;8.20;99.90;;;;;;5053372;28;20099;-80
2020/12/04 12:48:05;;;;;;;0.55;0.55;;;8.20;99.90;;;;;;5050214;28;20107;-79
2020/12/04 12:50:31;;;;;;;0.50;0.40;;;8.20;99.90;;;;;;5051913;28;20017;-79
2020/12/04 12:52:56;;;;;;;1.90;0.73;;;8.20;99.90;;;;;;5051769;28;20496;-79
2020/12/04 12:55:25;;;;;;;0.63;0.63;;;8.20;99.90;;;;;;5062590;28;20056;-79
2020/12/04 12:57:51;;;;;;;0.50;0.45;;;8.20;99.90;;;;;;5056715;28;20032;-79
2020/12/04 13:00:17;;;;;;;0.73;0.50;;;8.30;99.90;;;;;;5052836;28;20022;-79
2020/12/04 13:02:42;;;;;;;0.68;0.60;;;8.30;99.90;;;;;;5052017;28;20154;-79